^^
Datos históricos de la estación: Murcia-Puente Tocinos
Diario Informe para Septiembre 8, 2019 Unidades:  Ambas    Ingés   Métrico
Diario Semanal Mensual Anual
  Máxima: Mínima: Promedio:
Temperatura: 99.7 °F /  37.6 °C 78.6 °F /  25.9 °C 88.7 °F /  31.5 °C
Punto de rocio: 64 °F /  17.8 °C 50.9 °F /  10.5 °C 57.2 °F /  14 °C
Humedad: 56% 21% 36%
Velocidad viento: 13.7mph /  22.1km/h - 4.8mph /  7.7km/h
Racha viento: 25mph /  40.2km/h - -
Viento- - SSO
Presión: 29.9 in /  1011.7 hPa 29.8 in /  1009.0 hPa -
Precipitación: 0 in /  0.0 mm    
 
 
Tabla de datos para Septiembre 8, 2019
Hora Temperatura Punto de rocio Presión Viento Velocidad viento Racha viento Humedad Intensidad lluvia(por hora) Nubes
00:04 82.8 °F /  28.2 °C 62.8 °F /  17.1 °C 29.8in /  1010.6hPa NNO 2.4mph /  3.9km/h 5mph /  8km/h 51% 0in /  0.0mm
00:09 82.8 °F /  28.2 °C 63.1 °F /  17.3 °C 29.8in /  1010.3hPa NNO 2.3mph /  3.7km/h 5mph /  8km/h 51.8% 0in /  0.0mm
00:14 82.6 °F /  28.1 °C 63.3 °F /  17.4 °C 29.8in /  1010.3hPa NNE 1.8mph /  2.9km/h 3.6mph /  5.8km/h 52.1% 0in /  0.0mm
00:19 82.4 °F /  28 °C 63.5 °F /  17.5 °C 29.8in /  1010.3hPa NNE 1.9mph /  3.1km/h 4.7mph /  7.6km/h 53% 0in /  0.0mm
00:24 82.2 °F /  27.9 °C 63.3 °F /  17.4 °C 29.8in /  1010.2hPa NE 2.4mph /  3.9km/h 5mph /  8km/h 53% 0in /  0.0mm
00:29 82.2 °F /  27.9 °C 63.3 °F /  17.4 °C 29.8in /  1010.2hPa NE 2.5mph /  4km/h 5mph /  8km/h 53% 0in /  0.0mm
00:34 82.2 °F /  27.9 °C 63 °F /  17.2 °C 29.8in /  1010.2hPa NE 2.9mph /  4.6km/h 5mph /  8km/h 52% 0in /  0.0mm
00:39 82.4 °F /  28 °C 63 °F /  17.2 °C 29.8in /  1010.0hPa North 2.9mph /  4.7km/h 5mph /  8km/h 51.9% 0in /  0.0mm
00:44 82.2 °F /  27.9 °C 63.1 °F /  17.3 °C 29.8in /  1010.0hPa NO 2.9mph /  4.7km/h 5mph /  8km/h 52.6% 0in /  0.0mm
00:49 82 °F /  27.8 °C 62.6 °F /  17 °C 29.8in /  1010.0hPa ENE 2.6mph /  4.2km/h 5mph /  8km/h 51.7% 0in /  0.0mm
00:54 82 °F /  27.8 °C 62.4 °F /  16.9 °C 29.8in /  1010.0hPa NNE 1.4mph /  2.2km/h 3.6mph /  5.8km/h 51.5% 0in /  0.0mm
00:59 82 °F /  27.8 °C 63.1 °F /  17.3 °C 29.8in /  1010.0hPa NO 1.5mph /  2.4km/h 4mph /  6.4km/h 52.8% 0in /  0.0mm
01:04 82 °F /  27.8 °C 63.3 °F /  17.4 °C 29.8in /  1010.2hPa NO 1.8mph /  2.9km/h 4mph /  6.4km/h 53.2% 0in /  0.0mm
01:09 81.9 °F /  27.7 °C 63.7 °F /  17.6 °C 29.8in /  1010.2hPa NO 1.7mph /  2.8km/h 4mph /  6.4km/h 54% 0in /  0.0mm
01:14 81.7 °F /  27.6 °C 63.5 °F /  17.5 °C 29.8in /  1010.2hPa NO 1.4mph /  2.2km/h 5.2mph /  8.4km/h 54% 0in /  0.0mm
01:19 81.5 °F /  27.5 °C 63.3 °F /  17.4 °C 29.8in /  1010.2hPa NNO 1.5mph /  2.4km/h 5mph /  8km/h 54% 0in /  0.0mm
01:24 81.3 °F /  27.4 °C 63.3 °F /  17.4 °C 29.8in /  1010.2hPa NO 1.8mph /  2.9km/h 4.6mph /  7.4km/h 54.6% 0in /  0.0mm
01:29 81.3 °F /  27.4 °C 63.7 °F /  17.6 °C 29.8in /  1010.2hPa ONO 1.9mph /  3.1km/h 5mph /  8km/h 55% 0in /  0.0mm
01:34 81.1 °F /  27.3 °C 63.5 °F /  17.5 °C 29.8in /  1010.4hPa ONO 2.4mph /  3.9km/h 5mph /  8km/h 55% 0in /  0.0mm
01:39 81.1 °F /  27.3 °C 63.7 °F /  17.6 °C 29.8in /  1010.4hPa ONO 2.3mph /  3.7km/h 5mph /  8km/h 55.5% 0in /  0.0mm
01:44 81.1 °F /  27.3 °C 64 °F /  17.8 °C 29.8in /  1010.4hPa ONO 1.8mph /  2.9km/h 3.1mph /  5km/h 56% 0in /  0.0mm
01:49 81.1 °F /  27.3 °C 63.9 °F /  17.7 °C 29.8in /  1010.4hPa Sur 1.8mph /  2.9km/h 4.7mph /  7.6km/h 55.8% 0in /  0.0mm
01:54 81.1 °F /  27.3 °C 63.5 °F /  17.5 °C 29.8in /  1010.4hPa Sur 1.8mph /  2.9km/h 5mph /  8km/h 55% 0in /  0.0mm
01:59 81.3 °F /  27.4 °C 63.3 °F /  17.4 °C 29.8in /  1010.4hPa SSE 2.1mph /  3.3km/h 6.9mph /  11.1km/h 54.5% 0in /  0.0mm
02:04 81.5 °F /  27.5 °C 63.3 °F /  17.4 °C 29.8in /  1010.4hPa Sur 3.1mph /  5km/h 7mph /  11.3km/h 54% 0in /  0.0mm
02:09 81.3 °F /  27.4 °C 62.8 °F /  17.1 °C 29.8in /  1010.3hPa Sur 3.3mph /  5.3km/h 7.4mph /  11.9km/h 53.4% 0in /  0.0mm
02:14 81.3 °F /  27.4 °C 62.4 °F /  16.9 °C 29.8in /  1010.3hPa Sur 4.3mph /  6.9km/h 7mph /  11.3km/h 52.7% 0in /  0.0mm
02:19 81.5 °F /  27.5 °C 61.7 °F /  16.5 °C 29.8in /  1010.3hPa SSO 4.3mph /  6.9km/h 7mph /  11.3km/h 51.2% 0in /  0.0mm
02:24 81.7 °F /  27.6 °C 61.7 °F /  16.5 °C 29.8in /  1010.3hPa SSO 4.3mph /  6.9km/h 7mph /  11.3km/h 51% 0in /  0.0mm
02:29 81.7 °F /  27.6 °C 61.3 °F /  16.3 °C 29.8in /  1010.3hPa SO 4.2mph /  6.8km/h 7mph /  11.3km/h 50.1% 0in /  0.0mm
02:34 81.9 °F /  27.7 °C 61.3 °F /  16.3 °C 29.8in /  1010.3hPa SO 4mph /  6.5km/h 7.4mph /  11.9km/h 49.8% 0in /  0.0mm
02:39 81.9 °F /  27.7 °C 60.8 °F /  16 °C 29.8in /  1010.2hPa SO 4mph /  6.5km/h 7mph /  11.3km/h 48.8% 0in /  0.0mm
02:44 82 °F /  27.8 °C 60.4 °F /  15.8 °C 29.8in /  1010.2hPa SO 4mph /  6.5km/h 6.9mph /  11.1km/h 48.1% 0in /  0.0mm
02:49 82 °F /  27.8 °C 60.4 °F /  15.8 °C 29.8in /  1010.2hPa SO 4mph /  6.5km/h 7mph /  11.3km/h 48% 0in /  0.0mm
02:54 82 °F /  27.8 °C 60.1 °F /  15.6 °C 29.8in /  1010.0hPa SO 4mph /  6.5km/h 7mph /  11.3km/h 47.4% 0in /  0.0mm
02:59 82 °F /  27.8 °C 59.7 °F /  15.4 °C 29.8in /  1010.0hPa SO 3.9mph /  6.3km/h 6.2mph /  10km/h 47% 0in /  0.0mm
03:04 82 °F /  27.8 °C 59.7 °F /  15.4 °C 29.8in /  1010.0hPa SO 3.6mph /  5.8km/h 6mph /  9.7km/h 47% 0in /  0.0mm
03:09 82 °F /  27.8 °C 59.4 °F /  15.2 °C 29.8in /  1010.0hPa SO 3.7mph /  5.9km/h 6.9mph /  11.1km/h 46.2% 0in /  0.0mm
03:14 82 °F /  27.8 °C 59.2 °F /  15.1 °C 29.8in /  1010.0hPa SO 4mph /  6.4km/h 7mph /  11.3km/h 46% 0in /  0.0mm
03:19 81.9 °F /  27.7 °C 58.8 °F /  14.9 °C 29.8in /  1010.0hPa SSO 4.1mph /  6.6km/h 7mph /  11.3km/h 45.6% 0in /  0.0mm
03:24 81.9 °F /  27.7 °C 59.2 °F /  15.1 °C 29.8in /  1009.9hPa Sur 4.7mph /  7.6km/h 7.4mph /  11.9km/h 46% 0in /  0.0mm
03:29 81.9 °F /  27.7 °C 58.8 °F /  14.9 °C 29.8in /  1009.9hPa Sur 4.8mph /  7.8km/h 8.5mph /  13.7km/h 45.6% 0in /  0.0mm
03:34 81.7 °F /  27.6 °C 58.8 °F /  14.9 °C 29.8in /  1009.9hPa SSO 5.4mph /  8.7km/h 9mph /  14.5km/h 45.9% 0in /  0.0mm
03:39 81.3 °F /  27.4 °C 58.6 °F /  14.8 °C 29.8in /  1009.8hPa SSO 5.4mph /  8.7km/h 9.2mph /  14.8km/h 46% 0in /  0.0mm
03:44 81.3 °F /  27.4 °C 58.3 °F /  14.6 °C 29.8in /  1009.8hPa SSO 5.4mph /  8.7km/h 9mph /  14.5km/h 45.6% 0in /  0.0mm
03:49 81.5 °F /  27.5 °C 58.1 °F /  14.5 °C 29.8in /  1009.8hPa SO 5.2mph /  8.4km/h 7mph /  11.3km/h 45% 0in /  0.0mm
03:54 81.5 °F /  27.5 °C 58.1 °F /  14.5 °C 29.8in /  1009.8hPa SO 4.3mph /  6.9km/h 7mph /  11.3km/h 45% 0in /  0.0mm
03:59 81.3 °F /  27.4 °C 57.9 °F /  14.4 °C 29.8in /  1009.8hPa SSO 4.2mph /  6.8km/h 7mph /  11.3km/h 45% 0in /  0.0mm
04:04 81.3 °F /  27.4 °C 57.9 °F /  14.4 °C 29.8in /  1009.8hPa SSO 4mph /  6.5km/h 7.4mph /  11.9km/h 45% 0in /  0.0mm
04:09 81.3 °F /  27.4 °C 57.9 °F /  14.4 °C 29.8in /  1009.7hPa SO 4mph /  6.5km/h 7mph /  11.3km/h 45% 0in /  0.0mm
04:14 81.1 °F /  27.3 °C 57.7 °F /  14.3 °C 29.8in /  1009.7hPa SO 4mph /  6.5km/h 8.1mph /  13km/h 45% 0in /  0.0mm
04:19 81.1 °F /  27.3 °C 57.7 °F /  14.3 °C 29.8in /  1009.7hPa OSO 3.9mph /  6.3km/h 8mph /  12.9km/h 45% 0in /  0.0mm
04:24 81 °F /  27.2 °C 57.7 °F /  14.3 °C 29.8in /  1009.6hPa Oeste 3.6mph /  5.8km/h 5mph /  8km/h 45.3% 0in /  0.0mm
04:29 80.6 °F /  27 °C 57.7 °F /  14.3 °C 29.8in /  1009.6hPa OSO 3.5mph /  5.6km/h 5.2mph /  8.4km/h 45.8% 0in /  0.0mm
04:34 80.2 °F /  26.8 °C 57.6 °F /  14.2 °C 29.8in /  1009.6hPa OSO 3.1mph /  5km/h 5.8mph /  9.3km/h 46% 0in /  0.0mm
04:39 80.1 °F /  26.7 °C 57.6 °F /  14.2 °C 29.8in /  1009.6hPa Oeste 3.1mph /  5km/h 6mph /  9.7km/h 46.5% 0in /  0.0mm
04:44 79.7 °F /  26.5 °C 57.6 °F /  14.2 °C 29.8in /  1009.6hPa OSO 3.1mph /  5km/h 5mph /  8km/h 47% 0in /  0.0mm
04:49 79.5 °F /  26.4 °C 57.6 °F /  14.2 °C 29.8in /  1009.7hPa OSO 3mph /  4.8km/h 5.8mph /  9.3km/h 47% 0in /  0.0mm
04:54 79.5 °F /  26.4 °C 57.6 °F /  14.2 °C 29.8in /  1009.7hPa SO 2.4mph /  3.9km/h 6.2mph /  10km/h 47% 0in /  0.0mm
04:59 79.5 °F /  26.4 °C 57.6 °F /  14.2 °C 29.8in /  1009.7hPa SO 2.8mph /  4.5km/h 6.9mph /  11.1km/h 47% 0in /  0.0mm
05:04 79.5 °F /  26.4 °C 57.4 °F /  14.1 °C 29.8in /  1009.7hPa SO 4.3mph /  6.9km/h 8.1mph /  13km/h 46.8% 0in /  0.0mm
05:09 79.9 °F /  26.6 °C 57.2 °F /  14 °C 29.8in /  1009.6hPa SO 4.3mph /  7km/h 8.1mph /  13km/h 46% 0in /  0.0mm
05:14 79.9 °F /  26.6 °C 57.4 °F /  14.1 °C 29.8in /  1009.6hPa OSO 4.7mph /  7.6km/h 8mph /  12.9km/h 46% 0in /  0.0mm
05:19 79.9 °F /  26.6 °C 57.2 °F /  14 °C 29.8in /  1009.6hPa OSO 4.3mph /  6.9km/h 5.9mph /  9.5km/h 45.8% 0in /  0.0mm
05:24 79.9 °F /  26.6 °C 57.2 °F /  14 °C 29.8in /  1009.6hPa SO 2.4mph /  3.9km/h 6mph /  9.7km/h 45.8% 0in /  0.0mm
05:29 79.9 °F /  26.6 °C 57.4 °F /  14.1 °C 29.8in /  1009.6hPa OSO 2.5mph /  4.1km/h 6mph /  9.7km/h 46% 0in /  0.0mm
05:34 79.9 °F /  26.6 °C 57 °F /  13.9 °C 29.8in /  1009.7hPa SO 3.1mph /  5km/h 5mph /  8km/h 45.7% 0in /  0.0mm
05:39 79.7 °F /  26.5 °C 56.7 °F /  13.7 °C 29.8in /  1009.7hPa OSO 3mph /  4.8km/h 5mph /  8km/h 45.4% 0in /  0.0mm
05:44 79.5 °F /  26.4 °C 56.5 °F /  13.6 °C 29.8in /  1009.7hPa SO 2.4mph /  3.9km/h 5mph /  8km/h 45.2% 0in /  0.0mm
05:49 79.7 °F /  26.5 °C 56.5 °F /  13.6 °C 29.8in /  1010.0hPa SO 2.4mph /  3.9km/h 5mph /  8km/h 45% 0in /  0.0mm
05:54 79.7 °F /  26.5 °C 56.5 °F /  13.6 °C 29.8in /  1010.0hPa SO 2.4mph /  3.9km/h 5mph /  8km/h 45% 0in /  0.0mm
05:59 79.5 °F /  26.4 °C 55.8 °F /  13.2 °C 29.8in /  1010.0hPa SSO 2.7mph /  4.3km/h 8.1mph /  13km/h 44% 0in /  0.0mm
06:04 79.5 °F /  26.4 °C 55.4 °F /  13 °C 29.8in /  1010.2hPa SSO 3.6mph /  5.8km/h 9.2mph /  14.8km/h 43.6% 0in /  0.0mm
06:09 79.5 °F /  26.4 °C 55.6 °F /  13.1 °C 29.8in /  1010.2hPa SSO 3.9mph /  6.3km/h 9mph /  14.5km/h 43.9% 0in /  0.0mm
06:14 79.3 °F /  26.3 °C 55.6 °F /  13.1 °C 29.8in /  1010.2hPa SSO 5.2mph /  8.4km/h 7mph /  11.3km/h 44% 0in /  0.0mm
06:19 79.3 °F /  26.3 °C 55.4 °F /  13 °C 29.8in /  1010.2hPa SSO 4.9mph /  7.9km/h 7.4mph /  11.9km/h 43.8% 0in /  0.0mm
06:24 79.5 °F /  26.4 °C 55.2 °F /  12.9 °C 29.8in /  1010.2hPa SO 3.6mph /  5.8km/h 7mph /  11.3km/h 43.1% 0in /  0.0mm
06:29 79.7 °F /  26.5 °C 55.2 °F /  12.9 °C 29.8in /  1010.2hPa Oeste 3.5mph /  5.6km/h 6mph /  9.7km/h 43% 0in /  0.0mm
06:34 79.5 °F /  26.4 °C 55.8 °F /  13.2 °C 29.8in /  1010.3hPa ONO 2.9mph /  4.7km/h 3.5mph /  5.6km/h 44% 0in /  0.0mm
06:39 79.3 °F /  26.3 °C 55.6 °F /  13.1 °C 29.8in /  1010.3hPa ONO 2.7mph /  4.3km/h 4mph /  6.4km/h 44% 0in /  0.0mm
06:44 79.2 °F /  26.2 °C 55.9 °F /  13.3 °C 29.8in /  1010.3hPa ONO 1.8mph /  2.9km/h 5mph /  8km/h 44.9% 0in /  0.0mm
06:49 79 °F /  26.1 °C 55.9 °F /  13.3 °C 29.8in /  1010.4hPa Oeste 1.9mph /  3km/h 4.7mph /  7.6km/h 45% 0in /  0.0mm
06:54 78.8 °F /  26 °C 55.6 °F /  13.1 °C 29.8in /  1010.4hPa OSO 2mph /  3.2km/h 5.2mph /  8.4km/h 45% 0in /  0.0mm
06:59 78.6 °F /  25.9 °C 55.8 °F /  13.2 °C 29.8in /  1010.4hPa OSO 2.2mph /  3.6km/h 5mph /  8km/h 45.5% 0in /  0.0mm
07:04 78.6 °F /  25.9 °C 55.6 °F /  13.1 °C 29.8in /  1010.6hPa OSO 3.1mph /  5km/h 5mph /  8km/h 45% 0in /  0.0mm
07:09 78.8 °F /  26 °C 55.2 °F /  12.9 °C 29.8in /  1010.6hPa SO 3mph /  4.9km/h 5.8mph /  9.3km/h 44.4% 0in /  0.0mm
07:14 79.2 °F /  26.2 °C 55.2 °F /  12.9 °C 29.8in /  1010.6hPa SO 2.9mph /  4.7km/h 6mph /  9.7km/h 43.8% 0in /  0.0mm
07:19 79.5 °F /  26.4 °C 54.9 °F /  12.7 °C 29.9in /  1010.8hPa SSO 2.9mph /  4.7km/h 6.9mph /  11.1km/h 42.6% 0in /  0.0mm
07:24 80.2 °F /  26.8 °C 54.5 °F /  12.5 °C 29.9in /  1010.8hPa SO 3.1mph /  5km/h 7mph /  11.3km/h 41.2% 0in /  0.0mm
07:29 80.4 °F /  26.9 °C 54.7 °F /  12.6 °C 29.9in /  1010.8hPa SO 3.2mph /  5.2km/h 7mph /  11.3km/h 41% 0in /  0.0mm
07:34 80.6 °F /  27 °C 54.9 °F /  12.7 °C 29.9in /  1010.9hPa Oeste 4mph /  6.4km/h 6mph /  9.7km/h 41.2% 0in /  0.0mm
07:39 80.4 °F /  26.9 °C 55 °F /  12.8 °C 29.9in /  1010.9hPa Oeste 3.8mph /  6.1km/h 5mph /  8km/h 41.7% 0in /  0.0mm
07:44 80.4 °F /  26.9 °C 54.7 °F /  12.6 °C 29.9in /  1010.9hPa SO 2.9mph /  4.7km/h 6.2mph /  10km/h 41% 0in /  0.0mm
07:49 80.6 °F /  27 °C 54.7 °F /  12.6 °C 29.9in /  1011.0hPa SO 2.9mph /  4.7km/h 6.2mph /  10km/h 40.8% 0in /  0.0mm
07:54 81 °F /  27.2 °C 54.3 °F /  12.4 °C 29.9in /  1011.0hPa SO 2.9mph /  4.7km/h 8.5mph /  13.7km/h 40% 0in /  0.0mm
07:59 81.3 °F /  27.4 °C 54.5 °F /  12.5 °C 29.9in /  1011.0hPa SO 3.3mph /  5.3km/h 9mph /  14.5km/h 39.7% 0in /  0.0mm
08:04 81.5 °F /  27.5 °C 54.1 °F /  12.3 °C 29.9in /  1011.0hPa SO 4.7mph /  7.6km/h 8.5mph /  13.7km/h 39.1% 0in /  0.0mm
08:09 81.7 °F /  27.6 °C 54.3 °F /  12.4 °C 29.9in /  1010.9hPa SO 4.7mph /  7.5km/h 9mph /  14.5km/h 39% 0in /  0.0mm
08:14 81.9 °F /  27.7 °C 54.5 °F /  12.5 °C 29.9in /  1010.9hPa SO 4.3mph /  6.9km/h 9mph /  14.5km/h 39% 0in /  0.0mm
08:19 81.9 °F /  27.7 °C 54.5 °F /  12.5 °C 29.9in /  1011.0hPa SO 4.2mph /  6.8km/h 9mph /  14.5km/h 39% 0in /  0.0mm
08:24 82 °F /  27.8 °C 54.5 °F /  12.5 °C 29.9in /  1011.0hPa SO 4mph /  6.5km/h 8.1mph /  13km/h 39% 0in /  0.0mm
08:29 82.2 °F /  27.9 °C 54.3 °F /  12.4 °C 29.9in /  1011.0hPa SO 4.2mph /  6.7km/h 8.5mph /  13.7km/h 38.4% 0in /  0.0mm
08:34 82.4 °F /  28 °C 54.1 °F /  12.3 °C 29.9in /  1011.1hPa SO 4.7mph /  7.6km/h 9mph /  14.5km/h 38% 0in /  0.0mm
08:39 82.6 °F /  28.1 °C 54.3 °F /  12.4 °C 29.9in /  1011.1hPa SO 4.7mph /  7.5km/h 8.1mph /  13km/h 38% 0in /  0.0mm
08:44 82.8 °F /  28.2 °C 54.5 °F /  12.5 °C 29.9in /  1011.1hPa SO 4.3mph /  6.9km/h 8mph /  12.9km/h 38% 0in /  0.0mm
08:49 82.9 °F /  28.3 °C 54.7 °F /  12.6 °C 29.9in /  1011.2hPa SO 4.3mph /  6.9km/h 7.4mph /  11.9km/h 38% 0in /  0.0mm
08:54 83.1 °F /  28.4 °C 54.7 °F /  12.6 °C 29.9in /  1011.2hPa SO 4.3mph /  6.9km/h 8.1mph /  13km/h 37.9% 0in /  0.0mm
08:59 83.5 °F /  28.6 °C 54.5 °F /  12.5 °C 29.9in /  1011.2hPa SO 4.2mph /  6.7km/h 8.5mph /  13.7km/h 37.1% 0in /  0.0mm
09:04 83.7 °F /  28.7 °C 54.9 °F /  12.7 °C 29.9in /  1011.2hPa OSO 3.6mph /  5.8km/h 9mph /  14.5km/h 37.3% 0in /  0.0mm
09:09 83.8 °F /  28.8 °C 55.9 °F /  13.3 °C 29.9in /  1011.2hPa ONO 3.5mph /  5.6km/h 6.2mph /  10km/h 38.5% 0in /  0.0mm
09:14 84 °F /  28.9 °C 55.6 °F /  13.1 °C 29.9in /  1011.2hPa SSO 3.1mph /  5km/h 6mph /  9.7km/h 37.8% 0in /  0.0mm
09:19 84 °F /  28.9 °C 54.9 °F /  12.7 °C 29.9in /  1011.4hPa SO 3.2mph /  5.1km/h 7.4mph /  11.9km/h 37% 0in /  0.0mm
09:24 84.2 °F /  29 °C 55 °F /  12.8 °C 29.9in /  1011.4hPa SO 3.6mph /  5.8km/h 7mph /  11.3km/h 37% 0in /  0.0mm
09:29 84.4 °F /  29.1 °C 55.2 °F /  12.9 °C 29.9in /  1011.4hPa SSO 3.6mph /  5.8km/h 6mph /  9.7km/h 37% 0in /  0.0mm
09:34 84.6 °F /  29.2 °C 55 °F /  12.8 °C 29.9in /  1011.4hPa SO 3.6mph /  5.8km/h 8.1mph /  13km/h 36.7% 0in /  0.0mm
09:39 84.7 °F /  29.3 °C 55 °F /  12.8 °C 29.9in /  1011.4hPa SO 3.7mph /  6km/h 8.1mph /  13km/h 36.4% 0in /  0.0mm
09:44 84.9 °F /  29.4 °C 55 °F /  12.8 °C 29.9in /  1011.4hPa SO 4.3mph /  6.9km/h 8.5mph /  13.7km/h 36% 0in /  0.0mm
09:49 84.9 °F /  29.4 °C 55.2 °F /  12.9 °C 29.9in /  1011.5hPa SSO 4.5mph /  7.2km/h 9mph /  14.5km/h 36.2% 0in /  0.0mm
09:54 85.3 °F /  29.6 °C 55.2 °F /  12.9 °C 29.9in /  1011.5hPa SSO 5.2mph /  8.4km/h 8.1mph /  13km/h 36.1% 0in /  0.0mm
09:59 85.5 °F /  29.7 °C 55.6 °F /  13.1 °C 29.9in /  1011.5hPa SO 5.2mph /  8.4km/h 8.5mph /  13.7km/h 36% 0in /  0.0mm
10:04 86 °F /  30 °C 55.9 °F /  13.3 °C 29.9in /  1011.5hPa SO 5.2mph /  8.4km/h 9mph /  14.5km/h 36% 0in /  0.0mm
10:09 86.4 °F /  30.2 °C 55.8 °F /  13.2 °C 29.9in /  1011.5hPa SO 5mph /  8.1km/h 9mph /  14.5km/h 35.3% 0in /  0.0mm
10:14 86.7 °F /  30.4 °C 55.8 °F /  13.2 °C 29.9in /  1011.5hPa SSO 4.3mph /  6.9km/h 8.5mph /  13.7km/h 34.9% 0in /  0.0mm
10:19 87.1 °F /  30.6 °C 55.8 °F /  13.2 °C 29.9in /  1011.5hPa SO 4.5mph /  7.2km/h 9mph /  14.5km/h 34.6% 0in /  0.0mm
10:24 87.3 °F /  30.7 °C 55.8 °F /  13.2 °C 29.9in /  1011.5hPa SO 5.2mph /  8.4km/h 8mph /  12.9km/h 34.5% 0in /  0.0mm
10:29 87.4 °F /  30.8 °C 55.6 °F /  13.1 °C 29.9in /  1011.5hPa SO 5mph /  8km/h 7mph /  11.3km/h 34% 0in /  0.0mm
10:34 87.8 °F /  31 °C 55.9 °F /  13.3 °C 29.9in /  1011.6hPa SSO 4mph /  6.5km/h 8.5mph /  13.7km/h 34% 0in /  0.0mm
10:39 88 °F /  31.1 °C 56.1 °F /  13.4 °C 29.9in /  1011.6hPa SO 4.2mph /  6.7km/h 9mph /  14.5km/h 34% 0in /  0.0mm
10:44 88.3 °F /  31.3 °C 55.9 °F /  13.3 °C 29.9in /  1011.6hPa SO 4.7mph /  7.6km/h 8mph /  12.9km/h 33.5% 0in /  0.0mm
10:49 88.7 °F /  31.5 °C 55.9 °F /  13.3 °C 29.9in /  1011.6hPa SSO 4.4mph /  7.1km/h 7mph /  11.3km/h 33.1% 0in /  0.0mm
10:54 89.2 °F /  31.8 °C 56.1 °F /  13.4 °C 29.9in /  1011.6hPa Oeste 3.1mph /  5km/h 7mph /  11.3km/h 32.6% 0in /  0.0mm
10:59 89.6 °F /  32 °C 55 °F /  12.8 °C 29.9in /  1011.6hPa OSO 3.3mph /  5.3km/h 7mph /  11.3km/h 30.9% 0in /  0.0mm
11:04 90 °F /  32.2 °C 54.5 °F /  12.5 °C 29.9in /  1011.7hPa SO 4mph /  6.4km/h 7mph /  11.3km/h 30.2% 0in /  0.0mm
11:09 90.1 °F /  32.3 °C 54.5 °F /  12.5 °C 29.9in /  1011.7hPa Oeste 4mph /  6.5km/h 10.2mph /  16.4km/h 30% 0in /  0.0mm
11:14 90.3 °F /  32.4 °C 54.7 °F /  12.6 °C 29.9in /  1011.7hPa OSO 4mph /  6.5km/h 10.4mph /  16.7km/h 29.9% 0in /  0.0mm
11:19 90.7 °F /  32.6 °C 54.3 °F /  12.4 °C 29.9in /  1011.7hPa OSO 4.2mph /  6.7km/h 8.1mph /  13km/h 29.2% 0in /  0.0mm
11:24 90.9 °F /  32.7 °C 54.3 °F /  12.4 °C 29.9in /  1011.7hPa Oeste 4.7mph /  7.6km/h 8mph /  12.9km/h 29% 0in /  0.0mm
11:29 91.2 °F /  32.9 °C 54.7 °F /  12.6 °C 29.9in /  1011.7hPa Sur 4.4mph /  7.1km/h 7mph /  11.3km/h 29.1% 0in /  0.0mm
11:34 92.1 °F /  33.4 °C 55 °F /  12.8 °C 29.9in /  1011.7hPa SSE 3.1mph /  5km/h 6.9mph /  11.1km/h 28.8% 0in /  0.0mm
11:39 92.8 °F /  33.8 °C 54.3 °F /  12.4 °C 29.9in /  1011.7hPa Oeste 3.1mph /  5km/h 10.4mph /  16.7km/h 27.4% 0in /  0.0mm
11:44 92.7 °F /  33.7 °C 53.8 °F /  12.1 °C 29.9in /  1011.7hPa NO 3.1mph /  5km/h 10mph /  16.1km/h 27% 0in /  0.0mm
11:49 92.8 °F /  33.8 °C 54 °F /  12.2 °C 29.9in /  1011.7hPa Oeste 3.1mph /  5km/h 7mph /  11.3km/h 27% 0in /  0.0mm
11:54 93.2 °F /  34 °C 54 °F /  12.2 °C 29.9in /  1011.7hPa SSO 3.1mph /  5km/h 7.4mph /  11.9km/h 26.6% 0in /  0.0mm
11:59 93.6 °F /  34.2 °C 53.4 °F /  11.9 °C 29.9in /  1011.7hPa Sur 3.1mph /  5km/h 9.2mph /  14.8km/h 25.9% 0in /  0.0mm
12:04 93.9 °F /  34.4 °C 52.9 °F /  11.6 °C 29.9in /  1011.7hPa OSO 3.1mph /  5km/h 10.4mph /  16.7km/h 25.2% 0in /  0.0mm
12:09 94.1 °F /  34.5 °C 52.9 °F /  11.6 °C 29.9in /  1011.6hPa OSO 3.5mph /  5.7km/h 11.5mph /  18.5km/h 25% 0in /  0.0mm
12:14 94.1 °F /  34.5 °C 52.9 °F /  11.6 °C 29.9in /  1011.6hPa Oeste 5.4mph /  8.7km/h 12mph /  19.3km/h 25% 0in /  0.0mm
12:19 94.3 °F /  34.6 °C 52.2 °F /  11.2 °C 29.9in /  1011.6hPa Oeste 5.3mph /  8.5km/h 9.2mph /  14.8km/h 24.2% 0in /  0.0mm
12:24 94.3 °F /  34.6 °C 52 °F /  11.1 °C 29.9in /  1011.6hPa OSO 4.7mph /  7.6km/h 9mph /  14.5km/h 24% 0in /  0.0mm
12:29 94.5 °F /  34.7 °C 52.2 °F /  11.2 °C 29.9in /  1011.6hPa Oeste 4.6mph /  7.4km/h 10.4mph /  16.7km/h 24.1% 0in /  0.0mm
12:34 94.6 °F /  34.8 °C 52.3 °F /  11.3 °C 29.9in /  1011.6hPa Oeste 4mph /  6.5km/h 10mph /  16.1km/h 24.1% 0in /  0.0mm
12:39 94.6 °F /  34.8 °C 52.2 °F /  11.2 °C 29.9in /  1011.5hPa ONO 4.1mph /  6.6km/h 9mph /  14.5km/h 24% 0in /  0.0mm
12:44 95 °F /  35 °C 52.5 °F /  11.4 °C 29.9in /  1011.5hPa NNE 4.7mph /  7.6km/h 7mph /  11.3km/h 24% 0in /  0.0mm
12:49 95.5 °F /  35.3 °C 52.3 °F /  11.3 °C 29.9in /  1011.5hPa NE 4.4mph /  7.1km/h 8.1mph /  13km/h 23.4% 0in /  0.0mm
12:54 95.7 °F /  35.4 °C 52.5 °F /  11.4 °C 29.9in /  1011.5hPa NE 2.9mph /  4.7km/h 8mph /  12.9km/h 23.4% 0in /  0.0mm
12:59 95.9 °F /  35.5 °C 52.2 °F /  11.2 °C 29.9in /  1011.5hPa NE 2.9mph /  4.7km/h 6mph /  9.7km/h 23% 0in /  0.0mm
13:04 96.3 °F /  35.7 °C 52.5 °F /  11.4 °C 29.9in /  1011.5hPa NNE 2.9mph /  4.6km/h 6mph /  9.7km/h 23.2% 0in /  0.0mm
13:09 96.3 °F /  35.7 °C 52.3 °F /  11.3 °C 29.9in /  1011.3hPa NNE 3mph /  4.9km/h 7.4mph /  11.9km/h 23% 0in /  0.0mm
13:14 96.4 °F /  35.8 °C 52.3 °F /  11.3 °C 29.9in /  1011.3hPa ONO 3.6mph /  5.8km/h 7mph /  11.3km/h 22.8% 0in /  0.0mm
13:19 96.6 °F /  35.9 °C 51.6 °F /  10.9 °C 29.9in /  1011.3hPa Oeste 3.5mph /  5.6km/h 7mph /  11.3km/h 22% 0in /  0.0mm
13:24 96.8 °F /  36 °C 51.6 °F /  10.9 °C 29.9in /  1011.2hPa ONO 2.9mph /  4.7km/h 5.9mph /  9.5km/h 22% 0in /  0.0mm
13:29 97 °F /  36.1 °C 51.8 °F /  11 °C 29.9in /  1011.2hPa SO 2.9mph /  4.7km/h 6mph /  9.7km/h 22% 0in /  0.0mm
13:34 97.2 °F /  36.2 °C 51.6 °F /  10.9 °C 29.9in /  1011.2hPa SSO 3.1mph /  5km/h 5.2mph /  8.4km/h 21.7% 0in /  0.0mm
13:39 97.3 °F /  36.3 °C 51.6 °F /  10.9 °C 29.9in /  1011.0hPa NNE 3mph /  4.9km/h 5mph /  8km/h 21.5% 0in /  0.0mm
13:44 97.5 °F /  36.4 °C 51.1 °F /  10.6 °C 29.9in /  1011.0hPa NO 2.9mph /  4.7km/h 6.2mph /  10km/h 21% 0in /  0.0mm
13:49 97.3 °F /  36.3 °C 50.9 °F /  10.5 °C 29.9in /  1011.0hPa ONO 2.9mph /  4.7km/h 6mph /  9.7km/h 21% 0in /  0.0mm
13:54 97.7 °F /  36.5 °C 51.1 °F /  10.6 °C 29.9in /  1010.8hPa SE 2.9mph /  4.7km/h 5.9mph /  9.5km/h 21% 0in /  0.0mm
13:59 98.1 °F /  36.7 °C 51.6 °F /  10.9 °C 29.9in /  1010.8hPa SO 2.9mph /  4.7km/h 6.9mph /  11.1km/h 21.1% 0in /  0.0mm
14:04 98.1 °F /  36.7 °C 51.4 °F /  10.8 °C 29.9in /  1010.8hPa SE 2.9mph /  4.7km/h 9.2mph /  14.8km/h 21% 0in /  0.0mm
14:09 97.9 °F /  36.6 °C 52.2 °F /  11.2 °C 29.8in /  1010.6hPa ESE 3.2mph /  5.2km/h 9mph /  14.5km/h 21.6% 0in /  0.0mm
14:14 98.1 °F /  36.7 °C 52.2 °F /  11.2 °C 29.8in /  1010.6hPa ESE 4.7mph /  7.6km/h 6mph /  9.7km/h 21.6% 0in /  0.0mm
14:19 98.4 °F /  36.9 °C 51.8 °F /  11 °C 29.8in /  1010.6hPa SE 4.4mph /  7.1km/h 9.2mph /  14.8km/h 21.1% 0in /  0.0mm
14:24 98.4 °F /  36.9 °C 52.2 °F /  11.2 °C 29.8in /  1010.5hPa ENE 3.1mph /  5km/h 9.2mph /  14.8km/h 21.3% 0in /  0.0mm
14:29 98.4 °F /  36.9 °C 51.8 °F /  11 °C 29.8in /  1010.5hPa ENE 3.3mph /  5.3km/h 9mph /  14.5km/h 21% 0in /  0.0mm
14:34 98.4 °F /  36.9 °C 52 °F /  11.1 °C 29.8in /  1010.5hPa ESE 4.3mph /  6.9km/h 7.4mph /  11.9km/h 21% 0in /  0.0mm
14:39 99 °F /  37.2 °C 52.3 °F /  11.3 °C 29.8in /  1010.3hPa NE 4.1mph /  6.6km/h 11.2mph /  18km/h 21.2% 0in /  0.0mm
14:44 98.8 °F /  37.1 °C 52.2 °F /  11.2 °C 29.8in /  1010.3hPa NNE 3.1mph /  5km/h 13.8mph /  22.2km/h 21% 0in /  0.0mm
14:49 98.8 °F /  37.1 °C 52.2 °F /  11.2 °C 29.8in /  1010.3hPa Este 3.8mph /  6.1km/h 14mph /  22.5km/h 21.1% 0in /  0.0mm
14:54 98.8 °F /  37.1 °C 52.7 °F /  11.5 °C 29.8in /  1010.1hPa ENE 6.9mph /  11.1km/h 12mph /  19.3km/h 21.4% 0in /  0.0mm
14:59 99 °F /  37.2 °C 53.6 °F /  12 °C 29.8in /  1010.1hPa Este 6.5mph /  10.4km/h 11mph /  17.7km/h 22% 0in /  0.0mm
15:04 99 °F /  37.2 °C 53.8 °F /  12.1 °C 29.8in /  1010.1hPa ENE 4.7mph /  7.6km/h 8.5mph /  13.7km/h 22.2% 0in /  0.0mm
15:09 99.1 °F /  37.3 °C 54.5 °F /  12.5 °C 29.8in /  1010.0hPa ESE 4.7mph /  7.6km/h 9.2mph /  14.8km/h 22.7% 0in /  0.0mm
15:14 99.3 °F /  37.4 °C 54.3 °F /  12.4 °C 29.8in /  1010.0hPa Este 4.7mph /  7.6km/h 9mph /  14.5km/h 22.4% 0in /  0.0mm
15:19 99.5 °F /  37.5 °C 55 °F /  12.8 °C 29.8in /  1010.0hPa ENE 4.7mph /  7.5km/h 9.7mph /  15.6km/h 23% 0in /  0.0mm
15:24 99.3 °F /  37.4 °C 56.8 °F /  13.8 °C 29.8in /  1009.8hPa ENE 4.3mph /  6.9km/h 11.5mph /  18.5km/h 24.6% 0in /  0.0mm
15:29 99.1 °F /  37.3 °C 60.1 °F /  15.6 °C 29.8in /  1009.8hPa ESE 4.7mph /  7.6km/h 16.3mph /  26.2km/h 27.7% 0in /  0.0mm
15:34 99.5 °F /  37.5 °C 59.5 °F /  15.3 °C 29.8in /  1009.8hPa SSE 6.9mph /  11.1km/h 16.1mph /  25.9km/h 27.1% 0in /  0.0mm
15:39 99.7 °F /  37.6 °C 59.9 °F /  15.5 °C 29.8in /  1009.8hPa SE 7.4mph /  11.9km/h 16.8mph /  27km/h 27.2% 0in /  0.0mm
15:44 99.1 °F /  37.3 °C 59.5 °F /  15.3 °C 29.8in /  1009.8hPa SE 9.7mph /  15.6km/h 17.5mph /  28.2km/h 27.3% 0in /  0.0mm
15:49 99.1 °F /  37.3 °C 59.4 °F /  15.2 °C 29.8in /  1009.8hPa SE 9.8mph /  15.7km/h 17.3mph /  27.8km/h 27.1% 0in /  0.0mm
15:54 99.1 °F /  37.3 °C 59.4 °F /  15.2 °C 29.8in /  1009.8hPa SE 10.2mph /  16.4km/h 15mph /  24.1km/h 27% 0in /  0.0mm
15:59 99.3 °F /  37.4 °C 59.4 °F /  15.2 °C 29.8in /  1009.8hPa ESE 10.1mph /  16.2km/h 17.3mph /  27.8km/h 27% 0in /  0.0mm
16:04 99 °F /  37.2 °C 59 °F /  15 °C 29.8in /  1009.8hPa SE 9.7mph /  15.6km/h 17mph /  27.4km/h 26.8% 0in /  0.0mm
16:09 99.1 °F /  37.3 °C 58.3 °F /  14.6 °C 29.8in /  1009.7hPa ESE 9.6mph /  15.5km/h 18.4mph /  29.6km/h 26.1% 0in /  0.0mm
16:14 99 °F /  37.2 °C 57.9 °F /  14.4 °C 29.8in /  1009.7hPa SE 9.2mph /  14.8km/h 18mph /  29km/h 25.9% 0in /  0.0mm
16:19 99.1 °F /  37.3 °C 57.7 °F /  14.3 °C 29.8in /  1009.7hPa ESE 9.3mph /  14.9km/h 18.4mph /  29.6km/h 25.6% 0in /  0.0mm
16:24 99.1 °F /  37.3 °C 56.5 °F /  13.6 °C 29.8in /  1009.6hPa SE 9.7mph /  15.6km/h 17.3mph /  27.8km/h 24.4% 0in /  0.0mm
16:29 99.5 °F /  37.5 °C 56.3 °F /  13.5 °C 29.8in /  1009.6hPa SE 9.7mph /  15.6km/h 17.3mph /  27.8km/h 24% 0in /  0.0mm
16:34 99.5 °F /  37.5 °C 56.3 °F /  13.5 °C 29.8in /  1009.6hPa SE 9.7mph /  15.6km/h 17.3mph /  27.8km/h 23.9% 0in /  0.0mm
16:39 99.3 °F /  37.4 °C 56.1 °F /  13.4 °C 29.8in /  1009.5hPa ESE 10.1mph /  16.2km/h 21.3mph /  34.3km/h 24% 0in /  0.0mm
16:44 98.8 °F /  37.1 °C 56.3 °F /  13.5 °C 29.8in /  1009.5hPa ESE 11.8mph /  19km/h 21mph /  33.8km/h 24.5% 0in /  0.0mm
16:49 98.8 °F /  37.1 °C 56.8 °F /  13.8 °C 29.8in /  1009.5hPa ESE 11.7mph /  18.9km/h 18.4mph /  29.6km/h 25% 0in /  0.0mm
16:54 98.6 °F /  37 °C 57.2 °F /  14 °C 29.8in /  1009.3hPa ESE 11.4mph /  18.4km/h 21.3mph /  34.3km/h 25.5% 0in /  0.0mm
16:59 98.2 °F /  36.8 °C 58.1 °F /  14.5 °C 29.8in /  1009.3hPa ESE 11.9mph /  19.2km/h 21.3mph /  34.3km/h 26.5% 0in /  0.0mm
17:04 98.1 °F /  36.7 °C 59.5 °F /  15.3 °C 29.8in /  1009.3hPa ESE 13.7mph /  22.1km/h 21mph /  33.8km/h 28.1% 0in /  0.0mm
17:09 97.9 °F /  36.6 °C 60.3 °F /  15.7 °C 29.8in /  1009.2hPa ESE 13.7mph /  22km/h 24.2mph /  38.9km/h 29% 0in /  0.0mm
17:14 97.9 °F /  36.6 °C 60.1 °F /  15.6 °C 29.8in /  1009.2hPa ESE 13.5mph /  21.7km/h 24mph /  38.6km/h 29% 0in /  0.0mm
17:19 98.1 °F /  36.7 °C 60.3 °F /  15.7 °C 29.8in /  1009.2hPa ESE 13mph /  21km/h 21mph /  33.8km/h 29% 0in /  0.0mm
17:24 98.1 °F /  36.7 °C 60.4 °F /  15.8 °C 29.8in /  1009.2hPa ESE 10.7mph /  17.2km/h 21.3mph /  34.3km/h 29% 0in /  0.0mm
17:29 97.9 °F /  36.6 °C 60.1 °F /  15.6 °C 29.8in /  1009.2hPa ESE 11.1mph /  17.9km/h 21mph /  33.8km/h 29% 0in /  0.0mm
17:34 97.5 °F /  36.4 °C 60.4 °F /  15.8 °C 29.8in /  1009.2hPa ESE 13mph /  20.9km/h 24.6mph /  39.6km/h 29.4% 0in /  0.0mm
17:39 97.3 °F /  36.3 °C 60.4 °F /  15.8 °C 29.8in /  1009.1hPa ESE 13mph /  20.9km/h 25mph /  40.2km/h 29.6% 0in /  0.0mm
17:44 97.9 °F /  36.6 °C 60.1 °F /  15.6 °C 29.8in /  1009.1hPa ESE 13mph /  20.9km/h 23mph /  37km/h 29% 0in /  0.0mm
17:49 98.1 °F /  36.7 °C 59.5 °F /  15.3 °C 29.8in /  1009.1hPa SE 12.5mph /  20.1km/h 21.3mph /  34.3km/h 28.2% 0in /  0.0mm
17:54 98.1 °F /  36.7 °C 59.4 °F /  15.2 °C 29.8in /  1009.1hPa SE 10.2mph /  16.4km/h 21mph /  33.8km/h 28% 0in /  0.0mm
17:59 98.1 °F /  36.7 °C 58.5 °F /  14.7 °C 29.8in /  1009.1hPa ESE 10.4mph /  16.8km/h 20mph /  32.2km/h 27% 0in /  0.0mm
18:04 98.1 °F /  36.7 °C 58.3 °F /  14.6 °C 29.8in /  1009.2hPa SE 11.2mph /  18km/h 19mph /  30.6km/h 26.8% 0in /  0.0mm
18:09 98.2 °F /  36.8 °C 57.4 °F /  14.1 °C 29.8in /  1009.2hPa ESE 11mph /  17.7km/h 20.7mph /  33.3km/h 26% 0in /  0.0mm
18:14 98.1 °F /  36.7 °C 57.2 °F /  14 °C 29.8in /  1009.2hPa ESE 10mph /  16.1km/h 21mph /  33.8km/h 26% 0in /  0.0mm
18:19 98.1 °F /  36.7 °C 57.2 °F /  14 °C 29.8in /  1009.2hPa ESE 9.8mph /  15.7km/h 16.3mph /  26.2km/h 25.8% 0in /  0.0mm
18:24 98.2 °F /  36.8 °C 56.5 °F /  13.6 °C 29.8in /  1009.1hPa SE 8.7mph /  14km/h 16.1mph /  25.9km/h 25% 0in /  0.0mm
18:29 98.2 °F /  36.8 °C 56.5 °F /  13.6 °C 29.8in /  1009.1hPa SE 8.8mph /  14.1km/h 16mph /  25.7km/h 25% 0in /  0.0mm
18:34 98.1 °F /  36.7 °C 56.3 °F /  13.5 °C 29.8in /  1009.2hPa ESE 9.2mph /  14.8km/h 13mph /  20.9km/h 25% 0in /  0.0mm
18:39 97.9 °F /  36.6 °C 56.1 °F /  13.4 °C 29.8in /  1009.2hPa ESE 9.4mph /  15.1km/h 21.9mph /  35.2km/h 25% 0in /  0.0mm
18:44 97.3 °F /  36.3 °C 56.3 °F /  13.5 °C 29.8in /  1009.2hPa SE 10.7mph /  17.2km/h 22mph /  35.4km/h 25.6% 0in /  0.0mm
18:49 97.3 °F /  36.3 °C 57 °F /  13.9 °C 29.8in /  1009.2hPa ESE 10.6mph /  17.1km/h 18mph /  29km/h 26.2% 0in /  0.0mm
18:54 97.2 °F /  36.2 °C 57.6 °F /  14.2 °C 29.8in /  1009.1hPa SE 10.2mph /  16.4km/h 16.3mph /  26.2km/h 27% 0in /  0.0mm
18:59 96.8 °F /  36 °C 57.2 °F /  14 °C 29.8in /  1009.1hPa SE 10.2mph /  16.4km/h 18.4mph /  29.6km/h 26.9% 0in /  0.0mm
19:04 96.6 °F /  35.9 °C 57.2 °F /  14 °C 29.8in /  1009.1hPa SE 10mph /  16.1km/h 18mph /  29km/h 27% 0in /  0.0mm
19:09 96.6 °F /  35.9 °C 56.7 °F /  13.7 °C 29.8in /  1009.0hPa SE 9.8mph /  15.7km/h 17.5mph /  28.2km/h 26.5% 0in /  0.0mm
19:14 96.4 °F /  35.8 °C 55.9 °F /  13.3 °C 29.8in /  1009.0hPa SE 8.1mph /  13.1km/h 18.5mph /  29.8km/h 26% 0in /  0.0mm
19:19 96.1 °F /  35.6 °C 56.7 °F /  13.7 °C 29.8in /  1009.0hPa SE 8.4mph /  13.5km/h 19mph /  30.6km/h 27% 0in /  0.0mm
19:24 95.7 °F /  35.4 °C 56.5 °F /  13.6 °C 29.8in /  1009.0hPa SE 10mph /  16.1km/h 19.6mph /  31.5km/h 27% 0in /  0.0mm
19:29 95.4 °F /  35.2 °C 56.7 °F /  13.7 °C 29.8in /  1009.0hPa SE 10.1mph /  16.3km/h 20mph /  32.2km/h 27.6% 0in /  0.0mm
19:34 95 °F /  35 °C 55.9 °F /  13.3 °C 29.8in /  1009.1hPa SSE 10.7mph /  17.2km/h 17mph /  27.4km/h 27.1% 0in /  0.0mm
19:39 94.8 °F /  34.9 °C 56.1 °F /  13.4 °C 29.8in /  1009.1hPa SE 10.6mph /  17.1km/h 16mph /  25.7km/h 27.6% 0in /  0.0mm
19:44 94.6 °F /  34.8 °C 56.1 °F /  13.4 °C 29.8in /  1009.1hPa SE 10.2mph /  16.4km/h 15mph /  24.1km/h 27.6% 0in /  0.0mm
19:49 94.6 °F /  34.8 °C 55.6 °F /  13.1 °C 29.8in /  1009.1hPa SE 9.8mph /  15.7km/h 13mph /  20.9km/h 27% 0in /  0.0mm
19:54 94.6 °F /  34.8 °C 54.5 °F /  12.5 °C 29.8in /  1009.1hPa SE 6.9mph /  11.1km/h 13mph /  20.9km/h 26% 0in /  0.0mm
19:59 94.6 °F /  34.8 °C 54.3 °F /  12.4 °C 29.8in /  1009.1hPa SE 7mph /  11.3km/h 13.8mph /  22.2km/h 25.9% 0in /  0.0mm
20:04 94.5 °F /  34.7 °C 54.1 °F /  12.3 °C 29.8in /  1009.2hPa SE 7.4mph /  11.9km/h 14mph /  22.5km/h 25.9% 0in /  0.0mm
20:09 94.5 °F /  34.7 °C 54.3 °F /  12.4 °C 29.8in /  1009.2hPa SE 7.2mph /  11.6km/h 14mph /  22.5km/h 26% 0in /  0.0mm
20:14 94.1 °F /  34.5 °C 54 °F /  12.2 °C 29.8in /  1009.2hPa SE 6.2mph /  10km/h 13mph /  20.9km/h 26% 0in /  0.0mm
20:19 93.9 °F /  34.4 °C 54.1 °F /  12.3 °C 29.8in /  1009.3hPa SE 6.2mph /  10km/h 13mph /  20.9km/h 26.3% 0in /  0.0mm
20:24 93.7 °F /  34.3 °C 54.9 °F /  12.7 °C 29.8in /  1009.3hPa SE 6.4mph /  10.3km/h 10mph /  16.1km/h 27% 0in /  0.0mm
20:29 93.6 °F /  34.2 °C 55.6 °F /  13.1 °C 29.8in /  1009.3hPa SE 6.3mph /  10.1km/h 9mph /  14.5km/h 27.9% 0in /  0.0mm
20:34 93.6 °F /  34.2 °C 55.9 °F /  13.3 °C 29.8in /  1009.4hPa ESE 5.2mph /  8.4km/h 9.2mph /  14.8km/h 28.4% 0in /  0.0mm
20:39 93.4 °F /  34.1 °C 56.5 °F /  13.6 °C 29.8in /  1009.4hPa ESE 5mph /  8.1km/h 9mph /  14.5km/h 29.2% 0in /  0.0mm
20:44 93 °F /  33.9 °C 57 °F /  13.9 °C 29.8in /  1009.4hPa SE 4.3mph /  6.9km/h 7mph /  11.3km/h 30% 0in /  0.0mm
20:49 92.8 °F /  33.8 °C 56.8 °F /  13.8 °C 29.8in /  1009.5hPa ESE 4.3mph /  6.9km/h 7mph /  11.3km/h 30.1% 0in /  0.0mm
20:54 92.7 °F /  33.7 °C 57.6 °F /  14.2 °C 29.8in /  1009.5hPa SE 4mph /  6.5km/h 6mph /  9.7km/h 31% 0in /  0.0mm
20:59 92.5 °F /  33.6 °C 57.4 °F /  14.1 °C 29.8in /  1009.5hPa SE 3.7mph /  6km/h 5mph /  8km/h 31% 0in /  0.0mm
21:04 92.1 °F /  33.4 °C 57.2 °F /  14 °C 29.8in /  1009.6hPa ESE 2.4mph /  3.9km/h 5mph /  8km/h 31% 0in /  0.0mm
21:09 92.1 °F /  33.4 °C 57.6 °F /  14.2 °C 29.8in /  1009.6hPa ESE 2.2mph /  3.6km/h 3.6mph /  5.8km/h 31.4% 0in /  0.0mm
21:14 91.9 °F /  33.3 °C 57.6 °F /  14.2 °C 29.8in /  1009.6hPa Este 1.4mph /  2.2km/h 4mph /  6.4km/h 31.7% 0in /  0.0mm
21:19 91.8 °F /  33.2 °C 57.9 °F /  14.4 °C 29.8in /  1009.9hPa NNO 1.5mph /  2.4km/h 5.9mph /  9.5km/h 32.3% 0in /  0.0mm
21:24 91.2 °F /  32.9 °C 58.1 °F /  14.5 °C 29.8in /  1009.9hPa NNE 2mph /  3.2km/h 6mph /  9.7km/h 33% 0in /  0.0mm
21:29 90.9 °F /  32.7 °C 57.9 °F /  14.4 °C 29.8in /  1009.9hPa NE 2mph /  3.2km/h 5mph /  8km/h 33% 0in /  0.0mm
21:34 90.9 °F /  32.7 °C 57.7 °F /  14.3 °C 29.8in /  1010.0hPa NE 2mph /  3.2km/h 4.6mph /  7.4km/h 33.2% 0in /  0.0mm
21:39 90.5 °F /  32.5 °C 58.1 °F /  14.5 °C 29.8in /  1010.0hPa NE 2.1mph /  3.3km/h 5mph /  8km/h 33.7% 0in /  0.0mm
21:44 90.3 °F /  32.4 °C 57.9 °F /  14.4 °C 29.8in /  1010.0hPa NE 2.4mph /  3.9km/h 5mph /  8km/h 33.7% 0in /  0.0mm
21:49 90.1 °F /  32.3 °C 58.1 °F /  14.5 °C 29.8in /  1010.3hPa NNO 2.4mph /  3.9km/h 4.7mph /  7.6km/h 34.2% 0in /  0.0mm
21:54 89.8 °F /  32.1 °C 58.5 °F /  14.7 °C 29.8in /  1010.3hPa NNO 2.4mph /  3.9km/h 5.8mph /  9.3km/h 35% 0in /  0.0mm
21:59 89.2 °F /  31.8 °C 58.3 °F /  14.6 °C 29.8in /  1010.3hPa North 2.5mph /  4km/h 6mph /  9.7km/h 35.2% 0in /  0.0mm
22:04 89.1 °F /  31.7 °C 58.5 °F /  14.7 °C 29.8in /  1010.4hPa NNO 2.9mph /  4.7km/h 5mph /  8km/h 35.9% 0in /  0.0mm
22:09 88.7 °F /  31.5 °C 58.3 °F /  14.6 °C 29.8in /  1010.4hPa NO 2.7mph /  4.4km/h 5mph /  8km/h 36% 0in /  0.0mm
22:14 88.5 °F /  31.4 °C 58.3 °F /  14.6 °C 29.8in /  1010.4hPa NO 2mph /  3.2km/h 4mph /  6.4km/h 36.2% 0in /  0.0mm
22:19 88.3 °F /  31.3 °C 58.8 °F /  14.9 °C 29.8in /  1010.7hPa Este 2mph /  3.2km/h 5.9mph /  9.5km/h 37% 0in /  0.0mm
22:24 88.2 °F /  31.2 °C 59.2 °F /  15.1 °C 29.8in /  1010.7hPa Este 1.8mph /  2.9km/h 6mph /  9.7km/h 37.6% 0in /  0.0mm
22:29 88 °F /  31.1 °C 60.6 °F /  15.9 °C 29.8in /  1010.7hPa NO 1.9mph /  3km/h 6mph /  9.7km/h 40% 0in /  0.0mm
22:34 87.6 °F /  30.9 °C 60.8 °F /  16 °C 29.8in /  1010.7hPa NO 2.4mph /  3.9km/h 6mph /  9.7km/h 40.6% 0in /  0.0mm
22:39 87.3 °F /  30.7 °C 61.5 °F /  16.4 °C 29.8in /  1010.7hPa NO 2.4mph /  3.8km/h 5mph /  8km/h 42% 0in /  0.0mm
22:44 87.1 °F /  30.6 °C 61.7 °F /  16.5 °C 29.8in /  1010.7hPa NO 2mph /  3.2km/h 5mph /  8km/h 42.7% 0in /  0.0mm
22:49 86.7 °F /  30.4 °C 61.9 °F /  16.6 °C 29.8in /  1010.7hPa NO 2.2mph /  3.5km/h 5mph /  8km/h 43.5% 0in /  0.0mm
22:54 86.4 °F /  30.2 °C 62.1 °F /  16.7 °C 29.8in /  1010.7hPa NNO 3.1mph /  5km/h 5.9mph /  9.5km/h 44.3% 0in /  0.0mm
22:59 85.8 °F /  29.9 °C 62.1 °F /  16.7 °C 29.8in /  1010.7hPa NO 3.1mph /  5km/h 6mph /  9.7km/h 45.1% 0in /  0.0mm
23:04 85.5 °F /  29.7 °C 62.2 °F /  16.8 °C 29.9in /  1011.0hPa NO 3.1mph /  5km/h 5.8mph /  9.3km/h 46% 0in /  0.0mm
23:09 85.1 °F /  29.5 °C 62.4 °F /  16.9 °C 29.9in /  1011.0hPa NO 3.1mph /  5km/h 6mph /  9.7km/h 46.8% 0in /  0.0mm
23:14 84.7 °F /  29.3 °C 62.1 °F /  16.7 °C 29.9in /  1011.0hPa NO 3.1mph /  5km/h 5.2mph /  8.4km/h 46.5% 0in /  0.0mm
23:19 84.7 °F /  29.3 °C 61.7 °F /  16.5 °C 29.9in /  1011.1hPa NO 3mph /  4.9km/h 5mph /  8km/h 46% 0in /  0.0mm
23:24 84.7 °F /  29.3 °C 62.2 °F /  16.8 °C 29.9in /  1011.1hPa NO 2.9mph /  4.7km/h 6.2mph /  10km/h 46.9% 0in /  0.0mm
23:29 84.4 °F /  29.1 °C 62.2 °F /  16.8 °C 29.9in /  1011.1hPa NO 3mph /  4.9km/h 6.2mph /  10km/h 47.5% 0in /  0.0mm
23:34 84.2 °F /  29 °C 62.6 °F /  17 °C 29.9in /  1011.1hPa NO 4mph /  6.4km/h 6mph /  9.7km/h 48.5% 0in /  0.0mm
23:39 84 °F /  28.9 °C 63.3 °F /  17.4 °C 29.9in /  1011.1hPa NO 3.9mph /  6.3km/h 6mph /  9.7km/h 49.9% 0in /  0.0mm
23:44 83.8 °F /  28.8 °C 63.7 °F /  17.6 °C 29.9in /  1011.1hPa NO 3.1mph /  5km/h 5.2mph /  8.4km/h 50.7% 0in /  0.0mm
23:49 83.7 °F /  28.7 °C 63.9 °F /  17.7 °C 29.9in /  1011.1hPa NO 3mph /  4.9km/h 5mph /  8km/h 51.4% 0in /  0.0mm
23:54 83.5 °F /  28.6 °C 64 °F /  17.8 °C 29.9in /  1011.1hPa NO 2.9mph /  4.7km/h 5mph /  8km/h 52% 0in /  0.0mm
23:59 83.5 °F /  28.6 °C 63.9 °F /  17.7 °C 29.9in /  1011.1hPa NO 2.6mph /  4.2km/h 3.6mph /  5.8km/h 52% 0in /  0.0mm
Murcia-Puente Tocinos, España
Compliments of Weather Underground - 3 mb

La estación de MeteoMurcia.com, publica sus datos en los siguientes proyectos:

Weather Underground PWS IMURCIAP2 Meteoclimatic www.awekas.at

W3Counter
Web Analytics